createdAt,value
2019-03-26T00:02:01.031Z,99042.09
2019-03-26T00:07:54.972Z,98926.70
2019-03-26T00:10:44.912Z,99048.17
2019-03-26T00:13:35.070Z,99048.04
2019-03-26T00:16:06.440Z,99063.13
2019-03-26T00:18:56.566Z,99064.82
2019-03-26T00:21:46.721Z,99060.44
2019-03-26T00:24:37.107Z,99063.05
2019-03-26T00:30:17.411Z,99072.05
2019-03-26T00:33:08.355Z,99078.66
2019-03-26T00:36:02.574Z,99070.02
2019-03-26T00:38:55.878Z,99071.30
2019-03-26T00:41:46.682Z,99075.06
2019-03-26T00:44:18.029Z,99078.39
2019-03-26T00:46:54.835Z,99083.06
2019-03-26T00:49:44.785Z,99087.45
2019-03-26T00:52:35.038Z,99084.27
2019-03-26T00:55:27.805Z,99086.79
2019-03-26T00:58:17.877Z,99093.27
2019-03-26T01:01:08.581Z,99097.89
2019-03-26T01:03:58.892Z,99101.73
2019-03-26T01:06:30.229Z,99099.07
2019-03-26T01:09:20.599Z,99096.77
2019-03-26T01:12:10.613Z,99095.96
2019-03-26T01:14:42.033Z,99103.47
2019-03-26T01:17:32.416Z,99101.59
2019-03-26T01:20:22.324Z,99102.66
2019-03-26T01:23:12.539Z,99024.33
2019-03-26T01:26:03.277Z,99121.67
2019-03-26T01:28:53.473Z,99109.27
2019-03-26T01:31:46.311Z,99116.75
2019-03-26T01:34:45.960Z,99121.62
2019-03-26T01:37:16.620Z,99116.50
2019-03-26T01:39:49.278Z,99112.79
2019-03-26T01:48:33.462Z,99115.52
2019-03-26T01:54:45.940Z,99060.98
2019-03-26T01:57:28.063Z,98990.37
2019-03-26T02:00:10.851Z,99126.47
2019-03-26T02:05:53.844Z,99117.11
2019-03-26T02:09:02.570Z,99116.33
2019-03-26T02:12:12.021Z,99117.81
2019-03-26T02:18:18.020Z,99116.47
2019-03-26T02:20:44.335Z,99138.55
2019-03-26T02:23:38.948Z,99020.59
2019-03-26T02:26:32.581Z,99143.75
2019-03-26T02:29:03.763Z,99141.83
2019-03-26T02:31:55.494Z,99140.42
2019-03-26T02:34:45.897Z,99139.45
2019-03-26T02:37:36.393Z,99141.30
2019-03-26T02:40:26.483Z,99138.52
2019-03-26T02:43:16.837Z,99136.80
2019-03-26T02:46:07.174Z,99138.28
2019-03-26T02:48:57.456Z,99138.52
2019-03-26T02:51:50.804Z,99143.14
2019-03-26T02:54:40.635Z,99010.34
2019-03-26T02:57:30.856Z,99144.77
2019-03-26T03:00:12.242Z,99142.78
2019-03-26T03:02:53.077Z,99147.00
2019-03-26T03:05:36.212Z,99144.56
2019-03-26T03:10:59.025Z,99153.20
2019-03-26T03:13:41.219Z,99158.08
2019-03-26T03:18:58.877Z,99160.52
2019-03-26T03:21:49.117Z,99160.34
2019-03-26T03:24:38.964Z,99164.02
2019-03-26T03:27:28.924Z,99175.38
2019-03-26T03:32:33.239Z,99172.97
2019-03-26T03:35:23.313Z,99169.99
2019-03-26T03:38:13.421Z,99175.02
2019-03-26T03:41:05.057Z,99171.23
2019-03-26T03:43:55.582Z,99178.08
2019-03-26T03:49:47.958Z,99174.58
2019-03-26T03:52:56.410Z,99173.77
2019-03-26T03:59:17.661Z,99187.63
2019-03-26T04:01:48.856Z,99199.58
2019-03-26T04:04:39.022Z,99204.19
2019-03-26T04:07:29.740Z,99204.12
2019-03-26T04:10:19.739Z,99069.64
2019-03-26T04:13:10.066Z,99214.71
2019-03-26T04:16:00.955Z,99221.45
2019-03-26T04:18:33.826Z,99217.63
2019-03-26T04:21:07.034Z,99214.31
2019-03-26T04:23:57.094Z,99220.51
2019-03-26T04:26:47.136Z,99215.39
2019-03-26T04:29:37.405Z,99226.12
2019-03-26T04:32:27.505Z,99223.86
2019-03-26T04:35:17.725Z,99227.47
2019-03-26T04:38:07.529Z,99227.31
2019-03-26T04:40:57.811Z,99161.50
2019-03-26T04:47:10.155Z,99233.41
2019-03-26T04:49:59.943Z,99229.09
2019-03-26T04:52:50.079Z,99224.88
2019-03-26T04:55:40.613Z,99230.33
2019-03-26T04:58:31.123Z,99234.98
2019-03-26T05:01:21.458Z,99235.42
2019-03-26T05:04:12.067Z,99230.29
2019-03-26T05:10:03.515Z,99235.89
2019-03-26T05:12:44.181Z,99240.38
2019-03-26T05:15:34.656Z,99252.75
2019-03-26T05:18:25.389Z,99245.45
2019-03-26T05:21:15.745Z,99247.24
2019-03-26T05:24:05.798Z,99248.75
2019-03-26T05:26:37.163Z,99248.42
2019-03-26T05:29:27.867Z,99257.16
2019-03-26T05:32:17.663Z,99248.53
2019-03-26T05:35:28.195Z,99251.12
2019-03-26T05:37:59.493Z,99256.19
2019-03-26T05:40:30.671Z,99251.88
2019-03-26T05:43:02.701Z,99252.73
2019-03-26T05:45:52.806Z,99261.04
2019-03-26T05:48:24.076Z,99269.67
2019-03-26T05:51:15.697Z,99281.65
2019-03-26T05:53:46.805Z,99281.98
2019-03-26T05:56:37.444Z,99284.58
2019-03-26T05:59:27.463Z,99181.72
2019-03-26T06:02:15.085Z,99284.14
2019-03-26T06:04:43.152Z,99284.56
2019-03-26T06:07:14.558Z,99285.34
2019-03-26T06:09:46.000Z,99290.77
2019-03-26T06:12:17.940Z,99292.41
2019-03-26T06:14:50.228Z,99296.62
2019-03-26T06:17:21.735Z,99293.53
2019-03-26T06:20:12.427Z,99296.66
2019-03-26T06:22:43.969Z,99303.12
2019-03-26T06:25:15.472Z,99296.54
2019-03-26T06:28:08.343Z,99290.88
2019-03-26T06:30:58.714Z,99291.30
2019-03-26T06:33:31.450Z,99295.58
2019-03-26T06:36:03.419Z,99289.79
2019-03-26T06:38:35.339Z,99303.43
2019-03-26T06:41:28.249Z,99308.55
2019-03-26T06:44:18.933Z,99311.83
2019-03-26T06:46:51.089Z,99310.16
2019-03-26T06:49:43.529Z,99315.59
2019-03-26T06:53:00.861Z,99318.06
2019-03-26T06:55:34.307Z,99321.71
2019-03-26T06:58:06.088Z,99327.16
2019-03-26T07:00:37.393Z,99321.47
2019-03-26T07:03:08.758Z,99330.73
2019-03-26T07:06:00.668Z,99332.27
2019-03-26T07:08:52.555Z,99340.04
2019-03-26T07:11:42.903Z,99336.15
2019-03-26T07:14:14.020Z,99342.45
2019-03-26T07:17:04.021Z,99340.67
2019-03-26T07:19:36.887Z,99344.63
2019-03-26T07:22:27.434Z,99342.88
2019-03-26T07:25:00.931Z,99343.70
2019-03-26T07:27:35.314Z,99353.71
2019-03-26T07:30:07.850Z,99349.38
2019-03-26T07:32:39.622Z,99357.02
2019-03-26T07:35:14.056Z,99355.37
2019-03-26T07:37:45.963Z,99364.81
2019-03-26T07:40:17.642Z,99353.95
2019-03-26T07:45:59.832Z,99357.36
2019-03-26T07:48:32.002Z,99364.91
2019-03-26T07:51:04.853Z,99372.80
2019-03-26T07:53:57.019Z,99372.41
2019-03-26T07:56:39.716Z,99369.34
2019-03-26T07:59:14.483Z,99363.30
2019-03-26T08:04:41.289Z,99364.20
2019-03-26T08:07:13.674Z,99367.94
2019-03-26T08:10:04.323Z,99364.72
2019-03-26T08:13:12.883Z,99372.12
2019-03-26T08:16:02.992Z,99378.20
2019-03-26T08:18:53.359Z,99376.60
2019-03-26T08:21:44.491Z,99376.19
2019-03-26T08:24:35.124Z,99377.70
2019-03-26T08:27:25.111Z,99372.00
2019-03-26T08:29:56.395Z,99376.70
2019-03-26T08:32:37.422Z,99370.48
2019-03-26T08:35:08.934Z,99369.98
2019-03-26T08:38:11.645Z,99371.58
2019-03-26T08:40:51.186Z,99372.33
2019-03-26T08:43:22.896Z,99371.98
2019-03-26T08:45:55.767Z,99374.17
2019-03-26T08:48:46.239Z,99370.44
2019-03-26T08:51:36.211Z,99380.75
2019-03-26T08:54:28.329Z,99380.77
2019-03-26T08:56:59.665Z,99390.63
2019-03-26T08:59:41.214Z,99388.61
2019-03-26T09:02:12.635Z,99392.30
2019-03-26T09:05:04.492Z,99395.52
2019-03-26T09:07:54.466Z,99402.52
2019-03-26T09:10:51.697Z,99401.97
2019-03-26T09:13:40.708Z,99409.45
2019-03-26T09:16:22.463Z,99410.52
2019-03-26T09:18:55.624Z,99408.66
2019-03-26T09:21:46.196Z,99410.95
2019-03-26T09:24:18.349Z,99409.80
2019-03-26T09:27:08.959Z,99409.86
2019-03-26T09:30:00.792Z,99406.62
2019-03-26T09:32:51.383Z,99409.41
2019-03-26T09:35:43.236Z,99403.56
2019-03-26T09:41:29.906Z,99413.00
2019-03-26T09:44:21.295Z,99412.69
2019-03-26T09:47:16.514Z,99433.26
2019-03-26T09:50:03.081Z,99424.86
2019-03-26T09:52:55.911Z,99433.12
2019-03-26T09:55:28.102Z,99426.91
2019-03-26T09:58:17.974Z,99432.88
2019-03-26T10:03:42.590Z,99436.89
2019-03-26T10:06:23.418Z,99439.03
2019-03-26T10:08:52.980Z,99437.27
2019-03-26T10:11:47.675Z,99437.38
2019-03-26T10:18:06.131Z,99436.16
2019-03-26T10:20:41.925Z,99433.82
2019-03-26T10:23:18.875Z,99435.34
2019-03-26T10:29:36.101Z,99440.44
2019-03-26T10:32:18.096Z,99438.82
2019-03-26T10:35:08.502Z,99421.77
2019-03-26T10:38:01.653Z,99419.89
2019-03-26T10:40:33.839Z,99416.55
2019-03-26T10:43:06.042Z,99427.76
2019-03-26T10:45:56.798Z,99425.73
2019-03-26T10:48:47.622Z,99423.73
2019-03-26T10:51:39.055Z,99421.30
2019-03-26T10:54:25.857Z,99414.58
2019-03-26T10:57:09.257Z,99411.31
2019-03-26T10:59:53.903Z,99399.98
2019-03-26T11:02:26.472Z,99396.87
2019-03-26T11:05:03.681Z,99397.55
2019-03-26T11:07:36.356Z,99398.01
2019-03-26T11:10:28.843Z,99397.83
2019-03-26T11:13:06.636Z,99393.13
2019-03-26T11:15:56.796Z,99394.07
2019-03-26T11:18:47.995Z,99404.69
2019-03-26T11:21:30.693Z,99398.00
2019-03-26T11:24:06.088Z,99395.88
2019-03-26T11:26:56.137Z,99393.78
2019-03-26T11:29:46.260Z,99393.70
2019-03-26T11:32:28.771Z,99392.52
2019-03-26T11:35:02.193Z,99381.73
2019-03-26T11:38:18.672Z,99379.89
2019-03-26T11:41:08.926Z,99381.87
2019-03-26T11:43:59.808Z,99383.58
2019-03-26T11:47:10.425Z,99381.59
2019-03-26T11:49:45.842Z,99388.27
2019-03-26T11:52:18.279Z,99388.91
2019-03-26T11:54:53.593Z,99381.82
2019-03-26T11:57:45.034Z,99379.44
2019-03-26T12:00:42.036Z,99374.93
2019-03-26T12:03:33.458Z,99374.44
2019-03-26T12:09:46.538Z,99380.83
2019-03-26T12:15:55.856Z,99340.89
2019-03-26T12:18:48.771Z,99377.39
2019-03-26T12:21:20.821Z,99377.17
2019-03-26T12:24:11.944Z,99372.39
2019-03-26T12:27:09.266Z,99376.35
2019-03-26T12:30:05.038Z,99369.80
2019-03-26T12:39:03.110Z,99359.98
2019-03-26T12:41:38.293Z,99359.41
2019-03-26T12:44:28.500Z,99359.53
2019-03-26T12:47:19.120Z,99352.00
2019-03-26T12:53:12.549Z,99352.61
2019-03-26T12:55:54.945Z,99347.72
2019-03-26T12:59:05.557Z,99342.17
2019-03-26T13:02:14.559Z,99347.69
2019-03-26T13:04:52.636Z,99344.78
2019-03-26T13:07:48.076Z,99340.81
2019-03-26T13:10:38.719Z,99339.05
2019-03-26T13:13:33.005Z,99336.69
2019-03-26T13:16:24.191Z,99344.57
2019-03-26T13:19:15.882Z,99332.05
2019-03-26T13:22:23.038Z,99288.34
2019-03-26T13:25:19.759Z,99337.14
2019-03-26T13:27:51.532Z,99338.65
2019-03-26T13:30:23.259Z,99337.89
2019-03-26T13:33:13.761Z,99331.32
2019-03-26T13:36:03.709Z,99335.80
2019-03-26T13:38:54.329Z,99334.53
2019-03-26T13:45:14.357Z,99322.14
2019-03-26T13:54:01.168Z,99321.71
2019-03-26T13:57:10.121Z,99310.64
2019-03-26T14:00:19.875Z,99309.63
2019-03-26T14:02:51.322Z,99201.53
2019-03-26T14:05:42.174Z,99304.73
2019-03-26T14:08:15.974Z,99315.35
2019-03-26T14:10:47.643Z,99312.58
2019-03-26T14:13:29.849Z,99303.53
2019-03-26T14:16:01.188Z,99302.27
2019-03-26T14:18:51.948Z,99293.94
2019-03-26T14:21:40.684Z,99301.54
2019-03-26T14:24:31.183Z,99294.05
2019-03-26T14:27:22.335Z,99300.48
2019-03-26T14:29:54.375Z,99219.73
2019-03-26T14:32:28.909Z,99293.30
2019-03-26T14:35:42.683Z,99297.10
2019-03-26T14:38:33.436Z,99248.29
2019-03-26T14:41:16.556Z,99285.36
2019-03-26T14:44:06.639Z,99293.84
2019-03-26T14:46:58.098Z,99209.20
2019-03-26T14:49:31.273Z,99306.89
2019-03-26T14:52:18.454Z,99312.23
2019-03-26T14:55:09.305Z,99311.80
2019-03-26T14:57:52.195Z,99319.78
2019-03-26T15:00:34.891Z,99316.75
2019-03-26T15:03:19.281Z,99320.15
2019-03-26T15:08:38.735Z,99315.35
2019-03-26T15:11:13.746Z,99301.81
2019-03-26T15:13:49.780Z,99302.00
2019-03-26T15:16:21.476Z,99299.81
2019-03-26T15:18:53.745Z,99304.32
2019-03-26T15:21:45.000Z,99309.03
2019-03-26T15:24:18.561Z,99301.21
2019-03-26T15:27:13.877Z,99302.25
2019-03-26T15:29:46.147Z,99305.22
2019-03-26T15:32:17.900Z,99300.40
2019-03-26T15:37:46.556Z,99308.58
2019-03-26T15:40:36.571Z,99305.30
2019-03-26T15:44:03.948Z,99302.00
2019-03-26T15:46:50.937Z,99294.59
2019-03-26T15:49:23.720Z,99302.09
2019-03-26T15:55:01.428Z,99306.38
2019-03-26T15:57:43.021Z,99312.52
2019-03-26T16:03:10.560Z,99317.90
2019-03-26T16:05:43.248Z,99320.36
2019-03-26T16:08:19.375Z,99314.04
2019-03-26T16:10:52.350Z,99316.84
2019-03-26T16:13:43.191Z,99316.87
2019-03-26T16:16:17.798Z,99321.78
2019-03-26T16:18:50.880Z,99317.95
2019-03-26T16:21:22.313Z,99318.89
2019-03-26T16:23:53.731Z,99317.82
2019-03-26T16:26:26.618Z,99309.28
2019-03-26T16:29:17.653Z,99315.95
2019-03-26T16:31:51.277Z,99315.05
2019-03-26T16:34:29.237Z,99321.75
2019-03-26T16:37:01.989Z,99327.81
2019-03-26T16:39:33.156Z,99330.83
2019-03-26T16:42:21.726Z,99320.33
2019-03-26T16:44:53.445Z,99326.25
2019-03-26T16:47:28.120Z,99335.54
2019-03-26T16:50:02.463Z,99337.87
2019-03-26T16:52:33.828Z,99338.33
2019-03-26T16:55:45.642Z,99348.52
2019-03-26T16:58:18.476Z,99336.75
2019-03-26T17:01:09.399Z,99349.23
2019-03-26T17:03:59.403Z,99353.65
2019-03-26T17:06:49.984Z,99349.88
2019-03-26T17:09:49.832Z,99346.22
2019-03-26T17:12:41.428Z,99348.02
2019-03-26T17:15:13.373Z,99356.95
2019-03-26T17:17:45.156Z,99360.63
2019-03-26T17:20:57.131Z,99358.56
2019-03-26T17:23:54.514Z,99357.80
2019-03-26T17:26:48.547Z,99366.72
2019-03-26T17:29:40.309Z,99358.22
2019-03-26T17:32:31.063Z,99359.29
2019-03-26T17:38:39.384Z,99364.48
2019-03-26T17:41:17.331Z,99363.27
2019-03-26T17:47:03.570Z,99372.42
2019-03-26T17:49:36.596Z,99369.94
2019-03-26T17:52:29.133Z,99373.01
2019-03-26T17:55:20.803Z,99369.94
2019-03-26T17:57:52.176Z,99374.73
2019-03-26T18:00:49.637Z,99378.72
2019-03-26T18:07:14.589Z,99369.34
2019-03-26T18:10:05.888Z,99370.84
2019-03-26T18:13:00.595Z,99367.78
2019-03-26T18:15:53.173Z,99378.61
2019-03-26T18:30:47.870Z,99391.53
2019-03-26T18:34:06.273Z,99393.55
2019-03-26T18:45:41.033Z,99391.72
2019-03-26T18:48:50.536Z,99392.88
2019-03-26T18:58:17.128Z,99400.71
2019-03-26T19:00:58.658Z,99397.31
2019-03-26T19:06:29.940Z,99400.08
2019-03-26T19:11:57.127Z,99392.83
2019-03-26T19:18:21.178Z,99395.84
2019-03-26T19:21:15.591Z,99395.15
2019-03-26T19:24:10.549Z,99395.23
2019-03-26T19:27:19.235Z,99392.92
2019-03-26T19:35:46.145Z,99400.15
2019-03-26T19:38:20.857Z,99400.59
2019-03-26T19:40:53.382Z,99405.34
2019-03-26T19:43:28.199Z,99402.44
2019-03-26T19:46:03.951Z,99405.06
2019-03-26T19:48:48.276Z,99405.95
2019-03-26T19:51:52.597Z,99408.16
2019-03-26T20:00:19.566Z,99409.56
2019-03-26T20:03:16.490Z,99411.95
2019-03-26T20:05:50.085Z,99408.55
2019-03-26T20:08:24.364Z,99414.03
2019-03-26T20:11:15.810Z,99406.88
2019-03-26T20:16:45.326Z,99413.55
2019-03-26T20:19:39.968Z,99417.78
2019-03-26T20:22:57.415Z,99413.90
2019-03-26T20:25:51.725Z,99322.34
2019-03-26T20:28:44.694Z,99416.36
2019-03-26T20:31:25.060Z,99419.30
2019-03-26T20:33:59.054Z,99418.88
2019-03-26T20:39:11.241Z,99416.92
2019-03-26T20:44:23.179Z,99415.79
2019-03-26T20:47:00.545Z,99420.70
2019-03-26T20:49:35.294Z,99415.42
2019-03-26T20:53:29.766Z,99417.89
2019-03-26T20:54:49.615Z,99421.55
2019-03-26T20:57:41.221Z,99424.39
2019-03-26T21:00:14.445Z,99422.80
2019-03-26T21:03:05.332Z,99417.60
2019-03-26T21:05:43.853Z,99420.59
2019-03-26T21:08:34.787Z,99423.88
2019-03-26T21:11:13.275Z,99420.05
2019-03-26T21:13:51.078Z,99419.66
2019-03-26T21:16:40.869Z,99428.38
2019-03-26T21:19:17.565Z,99424.41
2019-03-26T21:21:49.092Z,99430.44
2019-03-26T21:24:40.114Z,99434.73
2019-03-26T21:27:31.889Z,99436.23
2019-03-26T21:30:27.112Z,99437.67
2019-03-26T21:33:01.966Z,99438.16
2019-03-26T21:39:31.416Z,99442.01
2019-03-26T21:42:43.474Z,99431.69
2019-03-26T21:45:56.178Z,99443.86
2019-03-26T21:48:42.847Z,99315.23
2019-03-26T21:51:18.683Z,99441.14
2019-03-26T21:53:55.971Z,99439.69
2019-03-26T21:56:35.107Z,99437.09
2019-03-26T22:02:43.655Z,99431.91
2019-03-26T22:05:31.297Z,99440.08
2019-03-26T22:08:21.689Z,99444.05
2019-03-26T22:11:12.337Z,99313.03
2019-03-26T22:13:48.642Z,99450.02
2019-03-26T22:16:40.285Z,99456.44
2019-03-26T22:19:30.512Z,99354.43
2019-03-26T22:22:02.311Z,99451.40
2019-03-26T22:24:36.265Z,99450.40
2019-03-26T22:27:28.227Z,99449.88
2019-03-26T22:30:00.925Z,99448.57
2019-03-26T22:32:52.671Z,99449.36
2019-03-26T22:35:43.979Z,99446.25
2019-03-26T22:41:31.197Z,99449.05
2019-03-26T22:44:03.481Z,99448.70
2019-03-26T22:46:42.126Z,99448.36
2019-03-26T22:49:14.654Z,99445.22
2019-03-26T22:52:05.188Z,99441.25
2019-03-26T22:57:29.988Z,99358.00
2019-03-26T23:00:20.720Z,99444.95
2019-03-26T23:02:52.608Z,99447.92
2019-03-26T23:05:42.895Z,99450.30
2019-03-26T23:08:14.608Z,99313.06
2019-03-26T23:11:33.115Z,99446.05
2019-03-26T23:14:06.112Z,99443.09
2019-03-26T23:16:37.835Z,99440.14
2019-03-26T23:19:34.017Z,99439.34
2019-03-26T23:22:24.412Z,99442.36
2019-03-26T23:28:17.297Z,99447.69
2019-03-26T23:30:50.408Z,99453.70
2019-03-26T23:33:42.550Z,99454.68
2019-03-26T23:36:15.999Z,99449.88
2019-03-26T23:39:27.346Z,99451.95
2019-03-26T23:42:17.382Z,99450.40
2019-03-26T23:44:58.314Z,99448.30
2019-03-26T23:47:45.124Z,99446.57
2019-03-26T23:50:17.760Z,99444.39
2019-03-26T23:52:49.554Z,99447.78
2019-03-26T23:56:14.898Z,99449.61
2019-03-26T23:59:05.587Z,99446.50
